sensor_id;sensor_type;location;lat;lon;timestamp;P1;durP1;ratioP1;P2;durP2;ratioP2
63378;SDS011;49509;54.996;73.270;2022-10-19T00:01:07;8.25;;;8.25;;
63378;SDS011;49509;54.996;73.270;2022-10-19T00:03:38;9.50;;;9.50;;
63378;SDS011;49509;54.996;73.270;2022-10-19T00:06:16;7.50;;;6.50;;
63378;SDS011;49509;54.996;73.270;2022-10-19T00:08:57;12.00;;;12.00;;
63378;SDS011;49509;54.996;73.270;2022-10-19T00:11:28;11.50;;;9.00;;
63378;SDS011;49509;54.996;73.270;2022-10-19T00:13:57;16.50;;;12.50;;
63378;SDS011;49509;54.996;73.270;2022-10-19T00:16:24;12.50;;;11.00;;
63378;SDS011;49509;54.996;73.270;2022-10-19T00:18:54;10.75;;;10.75;;
63378;SDS011;49509;54.996;73.270;2022-10-19T00:21:22;12.75;;;12.75;;
63378;SDS011;49509;54.996;73.270;2022-10-19T00:23:49;8.50;;;8.00;;
63378;SDS011;49509;54.996;73.270;2022-10-19T00:26:18;5.50;;;5.50;;
63378;SDS011;49509;54.996;73.270;2022-10-19T00:28:45;21.00;;;19.00;;
63378;SDS011;49509;54.996;73.270;2022-10-19T00:31:13;17.75;;;16.00;;
63378;SDS011;49509;54.996;73.270;2022-10-19T00:33:50;13.50;;;11.50;;
63378;SDS011;49509;54.996;73.270;2022-10-19T00:36:18;13.25;;;11.75;;
63378;SDS011;49509;54.996;73.270;2022-10-19T00:38:45;7.75;;;7.75;;
63378;SDS011;49509;54.996;73.270;2022-10-19T00:41:13;10.50;;;10.50;;
63378;SDS011;49509;54.996;73.270;2022-10-19T00:43:50;11.00;;;11.00;;
63378;SDS011;49509;54.996;73.270;2022-10-19T00:46:18;8.25;;;8.25;;
63378;SDS011;49509;54.996;73.270;2022-10-19T00:48:45;6.75;;;6.75;;
63378;SDS011;49509;54.996;73.270;2022-10-19T00:51:12;8.00;;;8.00;;
63378;SDS011;49509;54.996;73.270;2022-10-19T00:53:38;12.50;;;12.00;;
63378;SDS011;49509;54.996;73.270;2022-10-19T00:56:09;11.75;;;9.00;;
63378;SDS011;49509;54.996;73.270;2022-10-19T00:58:43;12.50;;;10.50;;
63378;SDS011;49509;54.996;73.270;2022-10-19T01:01:12;8.50;;;8.00;;
63378;SDS011;49509;54.996;73.270;2022-10-19T01:03:39;8.75;;;8.00;;
63378;SDS011;49509;54.996;73.270;2022-10-19T01:06:05;11.25;;;10.00;;
63378;SDS011;49509;54.996;73.270;2022-10-19T01:08:32;15.75;;;14.25;;
63378;SDS011;49509;54.996;73.270;2022-10-19T01:16:11;12.25;;;10.75;;
63378;SDS011;49509;54.996;73.270;2022-10-19T01:18:44;12.75;;;12.50;;
63378;SDS011;49509;54.996;73.270;2022-10-19T01:21:18;9.25;;;8.50;;
63378;SDS011;49509;54.996;73.270;2022-10-19T01:29:24;9.75;;;9.75;;
63378;SDS011;49509;54.996;73.270;2022-10-19T01:32:02;9.25;;;9.25;;
63378;SDS011;49509;54.996;73.270;2022-10-19T01:34:32;8.50;;;8.00;;
63378;SDS011;49509;54.996;73.270;2022-10-19T01:37:16;15.25;;;13.00;;
63378;SDS011;49509;54.996;73.270;2022-10-19T01:42:35;12.75;;;11.50;;
63378;SDS011;49509;54.996;73.270;2022-10-19T01:45:16;13.50;;;12.00;;
63378;SDS011;49509;54.996;73.270;2022-10-19T01:47:52;13.50;;;12.75;;
63378;SDS011;49509;54.996;73.270;2022-10-19T01:50:24;12.50;;;11.25;;
63378;SDS011;49509;54.996;73.270;2022-10-19T01:52:54;11.75;;;9.50;;
63378;SDS011;49509;54.996;73.270;2022-10-19T01:55:21;6.50;;;6.50;;
63378;SDS011;49509;54.996;73.270;2022-10-19T01:57:55;13.50;;;12.50;;
63378;SDS011;49509;54.996;73.270;2022-10-19T02:00:22;11.50;;;10.75;;
63378;SDS011;49509;54.996;73.270;2022-10-19T02:02:50;11.75;;;9.25;;
63378;SDS011;49509;54.996;73.270;2022-10-19T02:05:21;11.75;;;9.25;;
63378;SDS011;49509;54.996;73.270;2022-10-19T02:07:58;11.00;;;9.00;;
63378;SDS011;49509;54.996;73.270;2022-10-19T02:10:26;11.25;;;11.25;;
63378;SDS011;49509;54.996;73.270;2022-10-19T02:12:55;12.00;;;10.75;;
63378;SDS011;49509;54.996;73.270;2022-10-19T02:15:25;11.25;;;11.00;;
63378;SDS011;49509;54.996;73.270;2022-10-19T02:17:58;16.75;;;14.25;;
63378;SDS011;49509;54.996;73.270;2022-10-19T02:20:28;19.25;;;17.75;;
63378;SDS011;49509;54.996;73.270;2022-10-19T02:22:55;13.00;;;13.00;;
63378;SDS011;49509;54.996;73.270;2022-10-19T02:25:22;15.75;;;12.00;;
63378;SDS011;49509;54.996;73.270;2022-10-19T02:27:51;15.00;;;14.00;;
63378;SDS011;49509;54.996;73.270;2022-10-19T02:30:28;15.50;;;14.25;;
63378;SDS011;49509;54.996;73.270;2022-10-19T02:33:05;16.75;;;16.75;;
63378;SDS011;49509;54.996;73.270;2022-10-19T02:35:33;14.75;;;13.75;;
63378;SDS011;49509;54.996;73.270;2022-10-19T02:37:59;16.25;;;12.00;;
63378;SDS011;49509;54.996;73.270;2022-10-19T02:40:28;12.50;;;12.50;;
63378;SDS011;49509;54.996;73.270;2022-10-19T02:42:58;14.25;;;12.75;;
63378;SDS011;49509;54.996;73.270;2022-10-19T02:45:30;17.25;;;15.00;;
63378;SDS011;49509;54.996;73.270;2022-10-19T02:47:59;13.00;;;10.50;;
63378;SDS011;49509;54.996;73.270;2022-10-19T02:50:27;13.25;;;13.25;;
63378;SDS011;49509;54.996;73.270;2022-10-19T02:52:56;19.00;;;15.50;;
63378;SDS011;49509;54.996;73.270;2022-10-19T02:55:23;12.50;;;12.50;;
63378;SDS011;49509;54.996;73.270;2022-10-19T02:57:49;14.50;;;14.25;;
63378;SDS011;49509;54.996;73.270;2022-10-19T03:00:16;14.00;;;12.00;;
63378;SDS011;49509;54.996;73.270;2022-10-19T03:02:42;9.75;;;9.00;;
63378;SDS011;49509;54.996;73.270;2022-10-19T03:05:09;13.75;;;11.25;;
63378;SDS011;49509;54.996;73.270;2022-10-19T03:07:36;13.25;;;13.25;;
63378;SDS011;49509;54.996;73.270;2022-10-19T03:10:02;13.25;;;13.25;;
63378;SDS011;49509;54.996;73.270;2022-10-19T03:12:30;11.00;;;11.00;;
63378;SDS011;49509;54.996;73.270;2022-10-19T03:14:57;9.00;;;9.00;;
63378;SDS011;49509;54.996;73.270;2022-10-19T03:17:25;10.00;;;10.00;;
63378;SDS011;49509;54.996;73.270;2022-10-19T03:19:51;11.00;;;10.50;;
63378;SDS011;49509;54.996;73.270;2022-10-19T03:22:17;11.50;;;11.50;;
63378;SDS011;49509;54.996;73.270;2022-10-19T03:24:54;11.50;;;11.25;;
63378;SDS011;49509;54.996;73.270;2022-10-19T03:27:22;11.00;;;11.00;;
63378;SDS011;49509;54.996;73.270;2022-10-19T03:29:59;10.75;;;10.75;;
63378;SDS011;49509;54.996;73.270;2022-10-19T03:32:27;10.75;;;10.00;;
63378;SDS011;49509;54.996;73.270;2022-10-19T03:34:54;10.00;;;9.50;;
63378;SDS011;49509;54.996;73.270;2022-10-19T03:37:21;8.50;;;7.50;;
63378;SDS011;49509;54.996;73.270;2022-10-19T03:39:48;10.25;;;9.25;;
63378;SDS011;49509;54.996;73.270;2022-10-19T03:42:20;12.50;;;11.50;;
63378;SDS011;49509;54.996;73.270;2022-10-19T03:44:46;12.25;;;12.25;;
63378;SDS011;49509;54.996;73.270;2022-10-19T03:47:13;10.00;;;10.00;;
63378;SDS011;49509;54.996;73.270;2022-10-19T03:49:40;8.75;;;8.75;;
63378;SDS011;49509;54.996;73.270;2022-10-19T03:52:08;11.25;;;11.25;;
63378;SDS011;49509;54.996;73.270;2022-10-19T03:54:41;13.00;;;13.00;;
63378;SDS011;49509;54.996;73.270;2022-10-19T03:57:17;11.75;;;11.25;;
63378;SDS011;49509;54.996;73.270;2022-10-19T03:59:44;10.50;;;10.00;;
63378;SDS011;49509;54.996;73.270;2022-10-19T04:02:20;12.75;;;12.00;;
63378;SDS011;49509;54.996;73.270;2022-10-19T04:04:59;10.25;;;10.25;;
63378;SDS011;49509;54.996;73.270;2022-10-19T04:07:25;17.00;;;12.50;;
63378;SDS011;49509;54.996;73.270;2022-10-19T04:09:53;8.50;;;8.00;;
63378;SDS011;49509;54.996;73.270;2022-10-19T04:12:25;13.50;;;13.00;;
63378;SDS011;49509;54.996;73.270;2022-10-19T04:15:02;10.00;;;10.00;;
63378;SDS011;49509;54.996;73.270;2022-10-19T04:17:29;9.00;;;8.00;;
63378;SDS011;49509;54.996;73.270;2022-10-19T04:19:59;11.75;;;9.50;;
63378;SDS011;49509;54.996;73.270;2022-10-19T04:22:29;10.50;;;10.50;;
63378;SDS011;49509;54.996;73.270;2022-10-19T04:25:05;9.25;;;9.25;;
63378;SDS011;49509;54.996;73.270;2022-10-19T04:27:36;13.00;;;10.50;;
63378;SDS011;49509;54.996;73.270;2022-10-19T04:30:13;15.75;;;13.25;;
63378;SDS011;49509;54.996;73.270;2022-10-19T04:32:43;9.25;;;8.25;;
63378;SDS011;49509;54.996;73.270;2022-10-19T04:35:09;12.75;;;12.00;;
63378;SDS011;49509;54.996;73.270;2022-10-19T04:37:36;11.00;;;10.75;;
63378;SDS011;49509;54.996;73.270;2022-10-19T04:40:02;11.25;;;10.50;;
63378;SDS011;49509;54.996;73.270;2022-10-19T04:42:30;9.25;;;9.25;;
63378;SDS011;49509;54.996;73.270;2022-10-19T04:44:57;11.75;;;10.50;;
63378;SDS011;49509;54.996;73.270;2022-10-19T04:47:30;11.25;;;10.50;;
63378;SDS011;49509;54.996;73.270;2022-10-19T04:49:56;9.25;;;7.50;;
63378;SDS011;49509;54.996;73.270;2022-10-19T04:52:23;9.50;;;8.50;;
63378;SDS011;49509;54.996;73.270;2022-10-19T04:54:51;16.00;;;16.00;;
63378;SDS011;49509;54.996;73.270;2022-10-19T04:57:29;13.00;;;11.75;;
63378;SDS011;49509;54.996;73.270;2022-10-19T05:00:02;12.25;;;12.00;;
63378;SDS011;49509;54.996;73.270;2022-10-19T05:02:41;10.75;;;9.75;;
63378;SDS011;49509;54.996;73.270;2022-10-19T05:05:14;13.25;;;11.25;;
63378;SDS011;49509;54.996;73.270;2022-10-19T05:07:41;10.25;;;9.50;;
63378;SDS011;49509;54.996;73.270;2022-10-19T05:10:08;9.75;;;8.50;;
63378;SDS011;49509;54.996;73.270;2022-10-19T05:12:34;12.00;;;10.75;;
63378;SDS011;49509;54.996;73.270;2022-10-19T05:15:02;9.25;;;7.75;;
63378;SDS011;49509;54.996;73.270;2022-10-19T05:17:35;15.25;;;10.75;;
63378;SDS011;49509;54.996;73.270;2022-10-19T05:20:03;12.25;;;10.75;;
63378;SDS011;49509;54.996;73.270;2022-10-19T05:22:30;11.50;;;11.50;;
63378;SDS011;49509;54.996;73.270;2022-10-19T05:24:56;9.75;;;9.75;;
63378;SDS011;49509;54.996;73.270;2022-10-19T05:27:27;13.25;;;11.00;;
63378;SDS011;49509;54.996;73.270;2022-10-19T05:30:05;11.00;;;9.75;;
63378;SDS011;49509;54.996;73.270;2022-10-19T05:32:37;18.50;;;15.00;;
63378;SDS011;49509;54.996;73.270;2022-10-19T05:35:04;16.25;;;14.00;;
63378;SDS011;49509;54.996;73.270;2022-10-19T05:37:35;11.75;;;11.00;;
63378;SDS011;49509;54.996;73.270;2022-10-19T05:40:03;12.25;;;10.75;;
63378;SDS011;49509;54.996;73.270;2022-10-19T05:42:30;14.75;;;14.25;;
63378;SDS011;49509;54.996;73.270;2022-10-19T05:44:56;12.50;;;12.00;;
63378;SDS011;49509;54.996;73.270;2022-10-19T05:47:28;6.00;;;6.00;;
63378;SDS011;49509;54.996;73.270;2022-10-19T05:49:59;13.75;;;12.00;;
63378;SDS011;49509;54.996;73.270;2022-10-19T05:52:27;13.25;;;13.25;;
63378;SDS011;49509;54.996;73.270;2022-10-19T05:54:54;14.75;;;14.00;;
63378;SDS011;49509;54.996;73.270;2022-10-19T05:57:27;13.25;;;13.00;;
63378;SDS011;49509;54.996;73.270;2022-10-19T05:59:53;14.00;;;13.00;;
63378;SDS011;49509;54.996;73.270;2022-10-19T06:02:23;11.75;;;11.75;;
63378;SDS011;49509;54.996;73.270;2022-10-19T06:04:50;13.50;;;12.00;;
63378;SDS011;49509;54.996;73.270;2022-10-19T06:07:17;15.25;;;14.75;;
63378;SDS011;49509;54.996;73.270;2022-10-19T06:09:44;10.50;;;10.25;;
63378;SDS011;49509;54.996;73.270;2022-10-19T06:12:17;11.25;;;10.50;;
63378;SDS011;49509;54.996;73.270;2022-10-19T06:14:44;9.25;;;7.75;;
63378;SDS011;49509;54.996;73.270;2022-10-19T06:17:11;11.25;;;11.25;;
63378;SDS011;49509;54.996;73.270;2022-10-19T06:19:38;10.25;;;9.50;;
63378;SDS011;49509;54.996;73.270;2022-10-19T06:22:05;18.50;;;14.50;;
63378;SDS011;49509;54.996;73.270;2022-10-19T06:24:42;14.25;;;13.00;;
63378;SDS011;49509;54.996;73.270;2022-10-19T06:27:09;7.50;;;6.25;;
63378;SDS011;49509;54.996;73.270;2022-10-19T06:29:36;14.50;;;11.75;;
63378;SDS011;49509;54.996;73.270;2022-10-19T06:32:02;10.75;;;9.00;;
63378;SDS011;49509;54.996;73.270;2022-10-19T06:34:29;11.75;;;10.50;;
63378;SDS011;49509;54.996;73.270;2022-10-19T06:36:55;13.75;;;11.25;;
63378;SDS011;49509;54.996;73.270;2022-10-19T06:39:32;12.25;;;11.50;;
63378;SDS011;49509;54.996;73.270;2022-10-19T06:42:01;14.25;;;10.75;;
63378;SDS011;49509;54.996;73.270;2022-10-19T06:44:29;7.00;;;6.00;;
63378;SDS011;49509;54.996;73.270;2022-10-19T06:47:06;9.75;;;9.75;;
63378;SDS011;49509;54.996;73.270;2022-10-19T06:49:33;12.00;;;9.50;;
63378;SDS011;49509;54.996;73.270;2022-10-19T06:52:01;14.25;;;14.25;;
63378;SDS011;49509;54.996;73.270;2022-10-19T06:54:28;12.50;;;9.50;;
63378;SDS011;49509;54.996;73.270;2022-10-19T06:56:55;8.75;;;8.75;;
63378;SDS011;49509;54.996;73.270;2022-10-19T06:59:21;9.00;;;8.50;;
63378;SDS011;49509;54.996;73.270;2022-10-19T07:01:58;10.25;;;10.25;;
63378;SDS011;49509;54.996;73.270;2022-10-19T07:04:32;9.50;;;9.50;;
63378;SDS011;49509;54.996;73.270;2022-10-19T07:07:01;13.00;;;13.00;;
63378;SDS011;49509;54.996;73.270;2022-10-19T07:09:28;16.00;;;14.25;;
63378;SDS011;49509;54.996;73.270;2022-10-19T07:11:54;13.25;;;10.25;;
63378;SDS011;49509;54.996;73.270;2022-10-19T07:14:20;11.25;;;11.00;;
63378;SDS011;49509;54.996;73.270;2022-10-19T07:16:49;12.50;;;11.00;;
63378;SDS011;49509;54.996;73.270;2022-10-19T07:19:25;15.75;;;15.75;;
63378;SDS011;49509;54.996;73.270;2022-10-19T07:21:52;11.25;;;11.25;;
63378;SDS011;49509;54.996;73.270;2022-10-19T07:24:19;13.75;;;13.75;;
63378;SDS011;49509;54.996;73.270;2022-10-19T07:26:45;13.50;;;13.50;;
63378;SDS011;49509;54.996;73.270;2022-10-19T07:29:12;9.25;;;9.25;;
63378;SDS011;49509;54.996;73.270;2022-10-19T07:31:39;9.75;;;9.25;;
63378;SDS011;49509;54.996;73.270;2022-10-19T07:34:09;11.00;;;11.00;;
63378;SDS011;49509;54.996;73.270;2022-10-19T07:36:37;11.00;;;11.00;;
63378;SDS011;49509;54.996;73.270;2022-10-19T07:39:05;12.00;;;10.75;;
63378;SDS011;49509;54.996;73.270;2022-10-19T07:41:31;10.50;;;10.50;;
63378;SDS011;49509;54.996;73.270;2022-10-19T07:43:59;15.00;;;12.50;;
63378;SDS011;49509;54.996;73.270;2022-10-19T07:46:27;10.50;;;10.50;;
63378;SDS011;49509;54.996;73.270;2022-10-19T07:48:54;10.25;;;9.50;;
63378;SDS011;49509;54.996;73.270;2022-10-19T07:51:21;10.00;;;10.00;;
63378;SDS011;49509;54.996;73.270;2022-10-19T07:53:48;10.75;;;10.25;;
63378;SDS011;49509;54.996;73.270;2022-10-19T07:56:19;9.00;;;9.00;;
63378;SDS011;49509;54.996;73.270;2022-10-19T07:58:46;8.67;;;8.67;;
63378;SDS011;49509;54.996;73.270;2022-10-19T08:01:17;10.00;;;10.00;;
63378;SDS011;49509;54.996;73.270;2022-10-19T08:03:50;15.50;;;12.75;;
63378;SDS011;49509;54.996;73.270;2022-10-19T08:06:16;15.50;;;15.50;;
63378;SDS011;49509;54.996;73.270;2022-10-19T08:08:44;11.25;;;11.25;;
63378;SDS011;49509;54.996;73.270;2022-10-19T08:11:15;14.25;;;13.25;;
63378;SDS011;49509;54.996;73.270;2022-10-19T08:13:53;11.00;;;10.00;;
63378;SDS011;49509;54.996;73.270;2022-10-19T08:16:24;14.00;;;12.25;;
63378;SDS011;49509;54.996;73.270;2022-10-19T08:18:51;12.50;;;12.50;;
63378;SDS011;49509;54.996;73.270;2022-10-19T08:24:18;9.25;;;9.25;;
63378;SDS011;49509;54.996;73.270;2022-10-19T08:26:45;9.50;;;9.50;;
63378;SDS011;49509;54.996;73.270;2022-10-19T08:29:13;11.75;;;10.00;;
63378;SDS011;49509;54.996;73.270;2022-10-19T08:31:41;11.00;;;11.00;;
63378;SDS011;49509;54.996;73.270;2022-10-19T08:34:13;11.25;;;10.50;;
63378;SDS011;49509;54.996;73.270;2022-10-19T08:36:40;13.50;;;10.50;;
63378;SDS011;49509;54.996;73.270;2022-10-19T08:39:08;10.00;;;9.75;;
63378;SDS011;49509;54.996;73.270;2022-10-19T08:49:36;12.75;;;11.25;;
63378;SDS011;49509;54.996;73.270;2022-10-19T08:52:04;13.50;;;10.75;;
63378;SDS011;49509;54.996;73.270;2022-10-19T08:54:43;12.75;;;10.00;;
63378;SDS011;49509;54.996;73.270;2022-10-19T09:00:02;14.50;;;12.25;;
63378;SDS011;49509;54.996;73.270;2022-10-19T09:05:13;14.25;;;13.25;;
63378;SDS011;49509;54.996;73.270;2022-10-19T09:07:42;11.25;;;10.50;;
63378;SDS011;49509;54.996;73.270;2022-10-19T09:10:16;16.00;;;14.50;;
63378;SDS011;49509;54.996;73.270;2022-10-19T09:15:40;27.75;;;25.00;;
63378;SDS011;49509;54.996;73.270;2022-10-19T09:18:10;15.25;;;15.25;;
63378;SDS011;49509;54.996;73.270;2022-10-19T09:20:37;19.25;;;16.50;;
63378;SDS011;49509;54.996;73.270;2022-10-19T09:23:10;14.25;;;14.25;;
63378;SDS011;49509;54.996;73.270;2022-10-19T09:25:38;10.50;;;10.50;;
63378;SDS011;49509;54.996;73.270;2022-10-19T09:30:59;17.00;;;15.50;;
63378;SDS011;49509;54.996;73.270;2022-10-19T09:33:36;10.25;;;10.25;;
63378;SDS011;49509;54.996;73.270;2022-10-19T09:36:04;14.50;;;14.50;;
63378;SDS011;49509;54.996;73.270;2022-10-19T09:38:31;15.25;;;12.75;;
63378;SDS011;49509;54.996;73.270;2022-10-19T09:41:02;11.50;;;11.50;;
63378;SDS011;49509;54.996;73.270;2022-10-19T09:43:33;12.25;;;11.50;;
63378;SDS011;49509;54.996;73.270;2022-10-19T09:46:03;11.50;;;11.50;;
63378;SDS011;49509;54.996;73.270;2022-10-19T09:48:39;13.75;;;13.00;;
63378;SDS011;49509;54.996;73.270;2022-10-19T09:51:11;11.75;;;11.75;;
63378;SDS011;49509;54.996;73.270;2022-10-19T09:53:37;13.25;;;13.25;;
63378;SDS011;49509;54.996;73.270;2022-10-19T09:56:09;16.25;;;15.75;;
63378;SDS011;49509;54.996;73.270;2022-10-19T09:58:49;12.75;;;12.75;;
63378;SDS011;49509;54.996;73.270;2022-10-19T10:01:34;15.75;;;14.00;;
63378;SDS011;49509;54.996;73.270;2022-10-19T10:04:14;12.75;;;12.75;;
63378;SDS011;49509;54.996;73.270;2022-10-19T10:06:41;15.00;;;12.00;;
63378;SDS011;49509;54.996;73.270;2022-10-19T10:09:15;15.00;;;15.00;;
63378;SDS011;49509;54.996;73.270;2022-10-19T10:11:42;11.00;;;11.00;;
63378;SDS011;49509;54.996;73.270;2022-10-19T10:16:40;11.75;;;11.75;;
63378;SDS011;49509;54.996;73.270;2022-10-19T10:19:07;13.25;;;13.00;;
63378;SDS011;49509;54.996;73.270;2022-10-19T10:22:11;16.00;;;16.00;;
63378;SDS011;49509;54.996;73.270;2022-10-19T10:24:39;10.75;;;10.75;;
63378;SDS011;49509;54.996;73.270;2022-10-19T10:27:24;12.00;;;10.25;;
63378;SDS011;49509;54.996;73.270;2022-10-19T10:30:05;13.75;;;13.75;;
63378;SDS011;49509;54.996;73.270;2022-10-19T10:32:34;18.25;;;16.50;;
63378;SDS011;49509;54.996;73.270;2022-10-19T10:35:03;30.50;;;26.00;;
63378;SDS011;49509;54.996;73.270;2022-10-19T10:37:38;19.75;;;15.50;;
63378;SDS011;49509;54.996;73.270;2022-10-19T10:40:06;13.00;;;10.25;;
63378;SDS011;49509;54.996;73.270;2022-10-19T10:42:44;13.25;;;13.25;;
63378;SDS011;49509;54.996;73.270;2022-10-19T10:45:25;15.00;;;13.00;;
63378;SDS011;49509;54.996;73.270;2022-10-19T10:48:09;16.25;;;14.50;;
63378;SDS011;49509;54.996;73.270;2022-10-19T10:50:39;15.25;;;14.50;;
63378;SDS011;49509;54.996;73.270;2022-10-19T10:53:06;13.00;;;13.00;;
63378;SDS011;49509;54.996;73.270;2022-10-19T10:55:35;14.50;;;14.50;;
63378;SDS011;49509;54.996;73.270;2022-10-19T10:58:14;12.00;;;10.50;;
63378;SDS011;49509;54.996;73.270;2022-10-19T11:00:42;11.50;;;11.50;;
63378;SDS011;49509;54.996;73.270;2022-10-19T11:03:23;15.50;;;13.50;;
63378;SDS011;49509;54.996;73.270;2022-10-19T11:05:52;10.25;;;10.25;;
63378;SDS011;49509;54.996;73.270;2022-10-19T11:16:25;17.00;;;15.25;;
63378;SDS011;49509;54.996;73.270;2022-10-19T11:19:36;12.25;;;12.25;;
63378;SDS011;49509;54.996;73.270;2022-10-19T11:21:45;10.00;;;9.25;;
63378;SDS011;49509;54.996;73.270;2022-10-19T11:24:29;14.75;;;14.75;;
63378;SDS011;49509;54.996;73.270;2022-10-19T11:27:16;16.00;;;14.00;;
63378;SDS011;49509;54.996;73.270;2022-10-19T11:40:35;10.50;;;10.50;;
63378;SDS011;49509;54.996;73.270;2022-10-19T11:45:46;13.00;;;12.50;;
63378;SDS011;49509;54.996;73.270;2022-10-19T11:53:23;14.25;;;13.75;;
63378;SDS011;49509;54.996;73.270;2022-10-19T11:56:09;16.50;;;15.25;;
63378;SDS011;49509;54.996;73.270;2022-10-19T12:01:15;12.75;;;12.50;;
63378;SDS011;49509;54.996;73.270;2022-10-19T12:06:57;14.50;;;14.25;;
63378;SDS011;49509;54.996;73.270;2022-10-19T12:14:16;14.75;;;13.00;;
63378;SDS011;49509;54.996;73.270;2022-10-19T12:16:57;12.00;;;12.00;;
63378;SDS011;49509;54.996;73.270;2022-10-19T12:19:30;13.00;;;12.50;;
63378;SDS011;49509;54.996;73.270;2022-10-19T12:22:03;14.75;;;14.00;;
63378;SDS011;49509;54.996;73.270;2022-10-19T12:24:36;12.00;;;12.00;;
63378;SDS011;49509;54.996;73.270;2022-10-19T12:27:13;13.25;;;11.00;;
63378;SDS011;49509;54.996;73.270;2022-10-19T12:29:41;10.25;;;10.25;;
63378;SDS011;49509;54.996;73.270;2022-10-19T12:32:15;12.75;;;11.00;;
63378;SDS011;49509;54.996;73.270;2022-10-19T12:35:07;10.25;;;9.25;;
63378;SDS011;49509;54.996;73.270;2022-10-19T12:37:51;12.00;;;10.75;;
63378;SDS011;49509;54.996;73.270;2022-10-19T12:40:31;8.50;;;7.50;;
63378;SDS011;49509;54.996;73.270;2022-10-19T12:45:35;12.25;;;12.25;;
63378;SDS011;49509;54.996;73.270;2022-10-19T12:50:58;12.75;;;12.75;;
63378;SDS011;49509;54.996;73.270;2022-10-19T12:58:49;14.25;;;14.00;;
63378;SDS011;49509;54.996;73.270;2022-10-19T13:03:47;14.25;;;13.00;;
63378;SDS011;49509;54.996;73.270;2022-10-19T13:08:58;14.00;;;13.00;;
63378;SDS011;49509;54.996;73.270;2022-10-19T13:11:31;5.25;;;4.75;;
63378;SDS011;49509;54.996;73.270;2022-10-19T13:14:02;11.75;;;11.50;;
63378;SDS011;49509;54.996;73.270;2022-10-19T13:22:26;12.75;;;12.75;;
63378;SDS011;49509;54.996;73.270;2022-10-19T13:24:30;14.00;;;13.25;;
63378;SDS011;49509;54.996;73.270;2022-10-19T13:34:51;14.25;;;14.25;;
63378;SDS011;49509;54.996;73.270;2022-10-19T13:37:17;19.25;;;17.00;;
63378;SDS011;49509;54.996;73.270;2022-10-19T13:39:49;15.50;;;13.75;;
63378;SDS011;49509;54.996;73.270;2022-10-19T13:42:25;19.00;;;16.00;;
63378;SDS011;49509;54.996;73.270;2022-10-19T13:44:58;12.00;;;11.25;;
63378;SDS011;49509;54.996;73.270;2022-10-19T13:47:32;13.00;;;13.00;;
63378;SDS011;49509;54.996;73.270;2022-10-19T14:00:47;14.75;;;14.75;;
63378;SDS011;49509;54.996;73.270;2022-10-19T14:11:35;19.00;;;17.00;;
63378;SDS011;49509;54.996;73.270;2022-10-19T14:16:43;15.25;;;15.25;;
63378;SDS011;49509;54.996;73.270;2022-10-19T14:19:28;16.50;;;14.25;;
63378;SDS011;49509;54.996;73.270;2022-10-19T14:21:59;13.75;;;12.25;;
63378;SDS011;49509;54.996;73.270;2022-10-19T14:24:36;17.50;;;17.50;;
63378;SDS011;49509;54.996;73.270;2022-10-19T14:27:03;17.50;;;13.75;;
63378;SDS011;49509;54.996;73.270;2022-10-19T14:29:33;16.75;;;15.25;;
63378;SDS011;49509;54.996;73.270;2022-10-19T14:32:14;15.00;;;14.50;;
63378;SDS011;49509;54.996;73.270;2022-10-19T14:34:45;18.50;;;18.00;;
63378;SDS011;49509;54.996;73.270;2022-10-19T14:37:20;15.25;;;15.25;;
63378;SDS011;49509;54.996;73.270;2022-10-19T14:39:57;17.00;;;15.75;;
63378;SDS011;49509;54.996;73.270;2022-10-19T14:42:33;16.50;;;16.50;;
63378;SDS011;49509;54.996;73.270;2022-10-19T14:45:07;12.25;;;12.00;;
63378;SDS011;49509;54.996;73.270;2022-10-19T14:47:35;16.25;;;16.25;;
63378;SDS011;49509;54.996;73.270;2022-10-19T14:50:03;14.50;;;12.75;;
63378;SDS011;49509;54.996;73.270;2022-10-19T14:52:31;16.00;;;15.50;;
63378;SDS011;49509;54.996;73.270;2022-10-19T14:55:01;16.00;;;15.50;;
63378;SDS011;49509;54.996;73.270;2022-10-19T14:57:35;16.75;;;15.75;;
63378;SDS011;49509;54.996;73.270;2022-10-19T15:00:05;14.50;;;14.50;;
63378;SDS011;49509;54.996;73.270;2022-10-19T15:02:47;17.00;;;11.75;;
63378;SDS011;49509;54.996;73.270;2022-10-19T15:05:38;16.50;;;15.75;;
63378;SDS011;49509;54.996;73.270;2022-10-19T15:08:15;16.00;;;14.00;;
63378;SDS011;49509;54.996;73.270;2022-10-19T15:10:44;15.75;;;15.00;;
63378;SDS011;49509;54.996;73.270;2022-10-19T15:15:49;16.25;;;16.00;;
63378;SDS011;49509;54.996;73.270;2022-10-19T15:18:16;20.00;;;17.25;;
63378;SDS011;49509;54.996;73.270;2022-10-19T15:21:13;17.50;;;16.75;;
63378;SDS011;49509;54.996;73.270;2022-10-19T15:23:47;17.00;;;17.00;;
63378;SDS011;49509;54.996;73.270;2022-10-19T15:28:42;19.50;;;18.75;;
63378;SDS011;49509;54.996;73.270;2022-10-19T15:31:27;21.25;;;19.50;;
63378;SDS011;49509;54.996;73.270;2022-10-19T15:33:58;15.00;;;14.75;;
63378;SDS011;49509;54.996;73.270;2022-10-19T15:36:25;19.50;;;18.25;;
63378;SDS011;49509;54.996;73.270;2022-10-19T15:41:29;19.50;;;19.50;;
63378;SDS011;49509;54.996;73.270;2022-10-19T15:43:57;19.50;;;19.25;;
63378;SDS011;49509;54.996;73.270;2022-10-19T15:46:27;21.00;;;19.75;;
63378;SDS011;49509;54.996;73.270;2022-10-19T15:49:15;20.75;;;19.50;;
63378;SDS011;49509;54.996;73.270;2022-10-19T15:51:49;20.00;;;20.00;;
63378;SDS011;49509;54.996;73.270;2022-10-19T15:54:16;28.25;;;25.50;;
63378;SDS011;49509;54.996;73.270;2022-10-19T15:56:47;22.75;;;21.25;;
63378;SDS011;49509;54.996;73.270;2022-10-19T15:59:17;26.00;;;23.25;;
63378;SDS011;49509;54.996;73.270;2022-10-19T16:01:53;17.75;;;17.00;;
63378;SDS011;49509;54.996;73.270;2022-10-19T16:04:19;23.00;;;21.50;;
63378;SDS011;49509;54.996;73.270;2022-10-19T16:06:45;39.75;;;33.50;;
63378;SDS011;49509;54.996;73.270;2022-10-19T16:09:17;23.25;;;23.25;;
63378;SDS011;49509;54.996;73.270;2022-10-19T16:11:44;24.50;;;23.00;;
63378;SDS011;49509;54.996;73.270;2022-10-19T16:14:11;22.75;;;22.25;;
63378;SDS011;49509;54.996;73.270;2022-10-19T16:16:37;25.25;;;24.00;;
63378;SDS011;49509;54.996;73.270;2022-10-19T16:19:04;25.50;;;25.50;;
63378;SDS011;49509;54.996;73.270;2022-10-19T16:21:36;23.00;;;21.75;;
63378;SDS011;49509;54.996;73.270;2022-10-19T16:24:03;25.00;;;23.50;;
63378;SDS011;49509;54.996;73.270;2022-10-19T16:26:30;23.00;;;23.00;;
63378;SDS011;49509;54.996;73.270;2022-10-19T16:29:01;25.50;;;25.50;;
63378;SDS011;49509;54.996;73.270;2022-10-19T16:31:27;18.00;;;18.00;;
63378;SDS011;49509;54.996;73.270;2022-10-19T16:33:54;26.25;;;25.25;;
63378;SDS011;49509;54.996;73.270;2022-10-19T16:36:20;24.25;;;23.75;;
63378;SDS011;49509;54.996;73.270;2022-10-19T16:38:50;28.75;;;27.00;;
63378;SDS011;49509;54.996;73.270;2022-10-19T16:41:24;20.00;;;20.00;;
63378;SDS011;49509;54.996;73.270;2022-10-19T16:43:53;26.50;;;25.00;;
63378;SDS011;49509;54.996;73.270;2022-10-19T16:46:29;32.00;;;29.00;;
63378;SDS011;49509;54.996;73.270;2022-10-19T16:48:55;25.00;;;25.00;;